Barbados Meteorological Services
Auto gathered TAF list
Powered by Apparatus software
For Flight B6314
Contact Number 1-(246)-535-0021/2/3/4/5/6
WEB: http://www.barbadosweather.org

**********************************************

2021/12/06 18:15
TAF TLPL 061715Z 0618/0718 08020KT 9999 SCT026
TEMPO 0706/0718 SHRA= TAF TLPC 061715Z 0618/0718 08012G22KT 9999 SCT026
TEMPO 0706/0718 SHRA


**********************************************
2021/12/06 18:42
TAF TJSJ 061740Z 0618/0718 08015G25KT P6SM VCSH FEW026 SCT045 SCT060
FM062300 09009KT P6SM SCT025
FM071300 07015G25KT P6SM VCSH SCT025 SCT035


**********************************************
2021/12/06 18:54
TAF TAF TFFR 061700Z 0618/0718 09012KT 9999 SCT030 SCT070 PROB30
TEMPO 0618/0621 10015G25KT 4000 SHRA SCT025TCU
TEMPO 0702/0710 4000 SHRA SCT025TCU
TEMPO 0710/0715 3000 SHRA FEW011CB BKN018TCU


**********************************************
2021/12/06 18:31
TAF TBPB 061700Z 0618/0718 08022KT 9999 SCT018= TAF TVSA 061700Z 0618/0718 07015KT 9999 SCT018


**********************************************
2021/12/06 18:12
TAF TAF TAPA 061700Z 0618/0718 08012KT 9999 SCT018 PROB40
TEMPO 0618/0710 SHRA


**********************************************
2021/12/06 18:24
TAF MYNN 061645Z 0618/0718 15012KT 9000 SHRA BKN020
FM070000 12005KT 9999 SCT020


**********************************************
2021/12/06 18:21
TAF TAF MTPP 061700Z 0618/0718 10017KT 9999 FEW028
FM070200 30012KT 8000 NSC
BECMG 0706/0710 VRB02KT


**********************************************
2021/12/06 18:22
TAF MDSD 061600Z 0618/0718 14008KT 9999 SCT020 PROB30 0620/0700 8000 -SH BKN016


**********************************************
2021/12/06 18:51
TAF KSFB 061747Z 0618/0718 19007KT P6SM FEW030 SCT250
FM062200 22006KT P6SM SCT050 SCT250
FM070000 VRB03KT P6SM FEW040 SCT250
TEMPO 0709/0713 3SM BR BKN002
FM071400 33005KT P6SM FEW020 BKN250


**********************************************
2021/12/06 18:33
TAF KPHL 061731Z 0618/0724 20014G22KT P6SM SCT025 BKN120
TEMPO 0622/0701 4SM SHRA OVC025
FM070100 27016G32KT P6SM BKN100
FM070600 29012G22KT P6SM SCT200
FM071500 30010KT P6SM BKN200


**********************************************
2021/12/06 18:24
TAF KPBI 061722Z 0618/0718 14008KT P6SM VCSH SCT020 BKN040
FM070000 VRB03KT P6SM FEW020 SCT030 BKN050
FM070600 VRB03KT P6SM SCT020 BKN250
FM071600 03007KT P6SM SCT040 SCT250


**********************************************
2021/12/06 18:57
TAF KOPF 061854Z 0618/0718 15009KT P6SM VCSH SCT025 BKN040
TEMPO 0618/0620 VRB10KT 4SM SHRA BKN020
FM070000 VRB03KT P6SM FEW020 SCT030 BKN050
FM070600 VRB04KT P6SM SCT020 SCT250
FM071700 07006KT P6SM SCT040 SCT250


**********************************************


**********************************************
2021/12/06 18:24
TAF KMIA 061722Z 0618/0724 15009KT P6SM VCSH SCT025 BKN040
TEMPO 0618/0619 6SM SHRA BKN020
FM070000 VRB03KT P6SM FEW020 SCT030 BKN050
FM070700 VRB03KT P6SM SCT020 SCT250
FM071500 07006KT P6SM SCT040 SCT250


**********************************************
2021/12/06 18:51
TAF KMCO 061747Z 0618/0724 22008KT P6SM SCT030 SCT250
FM070000 VRB03KT P6SM FEW040 SCT250
TEMPO 0709/0713 3SM BR BKN002
FM071400 32005KT P6SM FEW020 BKN250


**********************************************
2021/12/06 19:15
TAF
AMD KJFK 061913Z 0619/0724 19022G32KT 6SM BR BKN004 BKN020
TEMPO 0619/0621 5SM BR SCT006
FM070000 23020G26KT 5SM -SHRA SCT015 BKN025
FM070300 29022G35KT 6SM -SHRA BR SCT025 BKN070
FM070500 29016G24KT P6SM SCT040 SCT250
FM071400 29014KT P6SM FEW040 SCT250
FM071700 27012KT P6SM BKN040
FM072200 25004KT P6SM SCT040 BKN150


**********************************************
2021/12/06 18:42
TAF KJAX 061740Z 0618/0718 23011KT P6SM SCT035 BKN200
FM070200 23003KT P6SM SCT040 BKN250
FM070900 26003KT 3SM BR SCT040 BKN100
FM071100 VRB02KT 1/2SM FG SCT003 BKN012
FM071400 30003KT 5SM BR SCT003 BKN025
FM071500 31005KT P6SM SCT015 BKN025


**********************************************
2021/12/06 18:45
TAF KFLL 061841Z 0618/0724 15009KT P6SM VCSH SCT020 BKN040
TEMPO 0618/0620 6SM -SHRA FEW015 BKN020
FM070000 VRB03KT P6SM FEW020 SCT030 BKN050
FM070700 VRB03KT P6SM SCT020 SCT250
FM071500 04006KT P6SM SCT040 SCT250


**********************************************
2021/12/06 19:27
TAF KEWR 061925Z 0619/0724 19015G25KT P6SM SCT015 SCT025 BKN100
TEMPO 0621/0623 BKN015
FM062300 24015G25KT 5SM -SHRA SCT015 BKN025
FM070200 29022G32KT 6SM -SHRA BR SCT025 BKN070
FM070400 29015G23KT P6SM SCT040 SCT250
FM071400 29012KT P6SM FEW040 SCT250
FM071700 28008KT P6SM BKN040
FM072200 25004KT P6SM SCT040 BKN150


**********************************************
2021/12/06 18:39
TAF KCLT 061736Z 0618/0724 22012G19KT P6SM SCT035 BKN090
TEMPO 0619/0621 BKN025
FM062300 24009G18KT P6SM VCSH OVC027
FM070200 32010G19KT P6SM OVC035
FM070600 36009KT P6SM SCT250
FM071900 06004KT P6SM FEW100


**********************************************
2021/12/06 18:27
KATL 061723Z 0618/0724 22011G20KT 5SM -SHRA BR SCT009 OVC015
TEMPO 0618/0620 2SM -TSRA BR BKN015CB
FM062200 27011G20KT P6SM VCSH SCT015 OVC025
FM070100 33012G23KT P6SM BKN035
FM070600 33010KT P6SM SCT060 SCT150
FM071400 04005KT P6SM BKN040
FM072000 10005KT P6SM BKN030


**********************************************